sensor_id;sensor_type;location;lat;lon;timestamp;P1;durP1;ratioP1;P2;durP2;ratioP2
60472;SDS011;46318;52.716;6.444;2023-09-18T00:00:46;25.88;;;23.75;;
60472;SDS011;46318;52.716;6.444;2023-09-18T00:03:19;24.55;;;22.38;;
60472;SDS011;46318;52.716;6.444;2023-09-18T00:05:49;27.52;;;25.02;;
60472;SDS011;46318;52.716;6.444;2023-09-18T00:08:17;24.02;;;22.02;;
60472;SDS011;46318;52.716;6.444;2023-09-18T00:10:52;27.20;;;24.70;;
60472;SDS011;46318;52.716;6.444;2023-09-18T00:13:19;27.17;;;24.80;;
60472;SDS011;46318;52.716;6.444;2023-09-18T00:15:46;25.05;;;22.85;;
60472;SDS011;46318;52.716;6.444;2023-09-18T00:18:13;25.60;;;23.45;;
60472;SDS011;46318;52.716;6.444;2023-09-18T00:20:40;27.50;;;24.90;;
60472;SDS011;46318;52.716;6.444;2023-09-18T00:23:07;26.52;;;24.23;;
60472;SDS011;46318;52.716;6.444;2023-09-18T00:25:34;24.95;;;22.77;;
60472;SDS011;46318;52.716;6.444;2023-09-18T00:28:00;26.20;;;23.83;;
60472;SDS011;46318;52.716;6.444;2023-09-18T00:30:26;26.48;;;24.15;;
60472;SDS011;46318;52.716;6.444;2023-09-18T00:32:52;26.05;;;23.77;;
60472;SDS011;46318;52.716;6.444;2023-09-18T00:35:18;23.73;;;21.60;;
60472;SDS011;46318;52.716;6.444;2023-09-18T00:37:44;25.42;;;23.25;;
60472;SDS011;46318;52.716;6.444;2023-09-18T00:40:10;26.48;;;24.27;;
60472;SDS011;46318;52.716;6.444;2023-09-18T00:42:36;26.77;;;24.50;;
60472;SDS011;46318;52.716;6.444;2023-09-18T00:45:02;27.90;;;25.58;;
60472;SDS011;46318;52.716;6.444;2023-09-18T00:47:29;26.67;;;24.38;;
60472;SDS011;46318;52.716;6.444;2023-09-18T00:49:55;28.40;;;25.75;;
60472;SDS011;46318;52.716;6.444;2023-09-18T00:52:21;26.85;;;24.45;;
60472;SDS011;46318;52.716;6.444;2023-09-18T00:54:49;30.33;;;27.52;;
60472;SDS011;46318;52.716;6.444;2023-09-18T00:57:16;30.65;;;27.60;;
60472;SDS011;46318;52.716;6.444;2023-09-18T00:59:42;30.30;;;27.73;;
60472;SDS011;46318;52.716;6.444;2023-09-18T01:02:09;32.17;;;29.38;;
60472;SDS011;46318;52.716;6.444;2023-09-18T01:04:35;32.63;;;29.73;;
60472;SDS011;46318;52.716;6.444;2023-09-18T01:07:03;34.53;;;31.40;;
60472;SDS011;46318;52.716;6.444;2023-09-18T01:09:32;35.00;;;31.80;;
60472;SDS011;46318;52.716;6.444;2023-09-18T01:12:08;33.65;;;30.77;;
60472;SDS011;46318;52.716;6.444;2023-09-18T01:17:37;33.53;;;30.63;;
60472;SDS011;46318;52.716;6.444;2023-09-18T01:20:08;35.40;;;32.25;;
60472;SDS011;46318;52.716;6.444;2023-09-18T01:22:36;33.90;;;31.00;;
60472;SDS011;46318;52.716;6.444;2023-09-18T01:25:02;35.47;;;32.45;;
60472;SDS011;46318;52.716;6.444;2023-09-18T01:27:28;33.35;;;30.45;;
60472;SDS011;46318;52.716;6.444;2023-09-18T01:29:54;32.45;;;29.63;;
60472;SDS011;46318;52.716;6.444;2023-09-18T01:32:20;35.03;;;32.03;;
60472;SDS011;46318;52.716;6.444;2023-09-18T01:34:51;33.75;;;30.95;;
60472;SDS011;46318;52.716;6.444;2023-09-18T01:37:21;36.67;;;33.53;;
60472;SDS011;46318;52.716;6.444;2023-09-18T01:39:51;35.17;;;32.00;;
60472;SDS011;46318;52.716;6.444;2023-09-18T01:42:18;32.90;;;29.90;;
60472;SDS011;46318;52.716;6.444;2023-09-18T01:44:45;35.13;;;31.95;;
60472;SDS011;46318;52.716;6.444;2023-09-18T01:47:14;36.53;;;33.10;;
60472;SDS011;46318;52.716;6.444;2023-09-18T01:49:43;35.27;;;31.93;;
60472;SDS011;46318;52.716;6.444;2023-09-18T01:52:09;35.17;;;31.90;;
60472;SDS011;46318;52.716;6.444;2023-09-18T01:54:35;35.65;;;32.47;;
60472;SDS011;46318;52.716;6.444;2023-09-18T01:57:01;34.88;;;31.73;;
60472;SDS011;46318;52.716;6.444;2023-09-18T01:59:28;36.28;;;32.88;;
60472;SDS011;46318;52.716;6.444;2023-09-18T02:01:54;35.10;;;31.90;;
60472;SDS011;46318;52.716;6.444;2023-09-18T02:04:21;33.95;;;30.75;;
60472;SDS011;46318;52.716;6.444;2023-09-18T02:06:48;34.30;;;31.25;;
60472;SDS011;46318;52.716;6.444;2023-09-18T02:09:15;34.03;;;31.10;;
60472;SDS011;46318;52.716;6.444;2023-09-18T02:11:44;34.05;;;31.02;;
60472;SDS011;46318;52.716;6.444;2023-09-18T02:14:11;32.15;;;29.33;;
60472;SDS011;46318;52.716;6.444;2023-09-18T02:16:41;32.25;;;29.45;;
60472;SDS011;46318;52.716;6.444;2023-09-18T02:19:12;34.30;;;31.23;;
60472;SDS011;46318;52.716;6.444;2023-09-18T02:21:39;33.45;;;30.45;;
60472;SDS011;46318;52.716;6.444;2023-09-18T02:24:06;31.80;;;28.92;;
60472;SDS011;46318;52.716;6.444;2023-09-18T02:26:32;31.20;;;28.42;;
60472;SDS011;46318;52.716;6.444;2023-09-18T02:28:59;30.15;;;27.45;;
60472;SDS011;46318;52.716;6.444;2023-09-18T02:31:27;30.83;;;28.05;;
60472;SDS011;46318;52.716;6.444;2023-09-18T02:33:53;31.25;;;28.55;;
60472;SDS011;46318;52.716;6.444;2023-09-18T02:36:19;28.98;;;26.42;;
60472;SDS011;46318;52.716;6.444;2023-09-18T02:38:45;28.20;;;25.90;;
60472;SDS011;46318;52.716;6.444;2023-09-18T02:41:11;28.33;;;25.73;;
60472;SDS011;46318;52.716;6.444;2023-09-18T02:43:36;28.35;;;25.83;;
60472;SDS011;46318;52.716;6.444;2023-09-18T02:46:03;29.35;;;26.75;;
60472;SDS011;46318;52.716;6.444;2023-09-18T02:48:30;29.38;;;26.77;;
60472;SDS011;46318;52.716;6.444;2023-09-18T02:50:57;27.95;;;25.55;;
60472;SDS011;46318;52.716;6.444;2023-09-18T02:53:27;29.10;;;26.47;;
60472;SDS011;46318;52.716;6.444;2023-09-18T02:55:54;27.80;;;25.27;;
60472;SDS011;46318;52.716;6.444;2023-09-18T02:58:22;28.83;;;26.15;;
60472;SDS011;46318;52.716;6.444;2023-09-18T03:03:24;27.38;;;24.77;;
60472;SDS011;46318;52.716;6.444;2023-09-18T03:05:51;27.92;;;25.42;;
60472;SDS011;46318;52.716;6.444;2023-09-18T03:08:17;28.77;;;26.35;;
60472;SDS011;46318;52.716;6.444;2023-09-18T03:10:43;27.77;;;25.50;;
60472;SDS011;46318;52.716;6.444;2023-09-18T03:13:10;27.30;;;24.88;;
60472;SDS011;46318;52.716;6.444;2023-09-18T03:15:39;27.00;;;24.75;;
60472;SDS011;46318;52.716;6.444;2023-09-18T03:18:12;28.58;;;25.92;;
60472;SDS011;46318;52.716;6.444;2023-09-18T03:20:38;26.95;;;24.55;;
60472;SDS011;46318;52.716;6.444;2023-09-18T03:23:04;26.98;;;24.65;;
60472;SDS011;46318;52.716;6.444;2023-09-18T03:25:30;25.05;;;22.67;;
60472;SDS011;46318;52.716;6.444;2023-09-18T03:27:56;25.05;;;22.75;;
60472;SDS011;46318;52.716;6.444;2023-09-18T03:30:23;25.90;;;23.63;;
60472;SDS011;46318;52.716;6.444;2023-09-18T03:32:50;25.48;;;23.00;;
60472;SDS011;46318;52.716;6.444;2023-09-18T03:35:16;24.73;;;22.63;;
60472;SDS011;46318;52.716;6.444;2023-09-18T03:37:50;24.42;;;22.35;;
60472;SDS011;46318;52.716;6.444;2023-09-18T03:40:19;23.58;;;21.38;;
60472;SDS011;46318;52.716;6.444;2023-09-18T03:42:45;23.52;;;21.48;;
60472;SDS011;46318;52.716;6.444;2023-09-18T03:45:12;23.20;;;21.08;;
60472;SDS011;46318;52.716;6.444;2023-09-18T03:47:39;21.88;;;19.88;;
60472;SDS011;46318;52.716;6.444;2023-09-18T03:50:06;20.60;;;18.70;;
60472;SDS011;46318;52.716;6.444;2023-09-18T03:52:34;21.10;;;19.30;;
60472;SDS011;46318;52.716;6.444;2023-09-18T03:55:01;21.02;;;19.13;;
60472;SDS011;46318;52.716;6.444;2023-09-18T03:57:27;20.27;;;18.20;;
60472;SDS011;46318;52.716;6.444;2023-09-18T03:59:53;20.25;;;18.13;;
60472;SDS011;46318;52.716;6.444;2023-09-18T04:02:21;20.05;;;18.20;;
60472;SDS011;46318;52.716;6.444;2023-09-18T04:04:49;20.25;;;18.45;;
60472;SDS011;46318;52.716;6.444;2023-09-18T04:07:15;19.42;;;17.65;;
60472;SDS011;46318;52.716;6.444;2023-09-18T04:09:41;20.63;;;18.73;;
60472;SDS011;46318;52.716;6.444;2023-09-18T04:12:08;18.02;;;16.33;;
60472;SDS011;46318;52.716;6.444;2023-09-18T04:14:34;18.45;;;16.85;;
60472;SDS011;46318;52.716;6.444;2023-09-18T04:17:01;20.10;;;18.30;;
60472;SDS011;46318;52.716;6.444;2023-09-18T04:19:27;19.60;;;17.70;;
60472;SDS011;46318;52.716;6.444;2023-09-18T04:21:53;18.80;;;17.15;;
60472;SDS011;46318;52.716;6.444;2023-09-18T04:24:19;19.75;;;17.75;;
60472;SDS011;46318;52.716;6.444;2023-09-18T04:26:46;19.38;;;17.58;;
60472;SDS011;46318;52.716;6.444;2023-09-18T04:29:12;19.38;;;17.63;;
60472;SDS011;46318;52.716;6.444;2023-09-18T04:31:37;19.02;;;17.17;;
60472;SDS011;46318;52.716;6.444;2023-09-18T04:34:03;19.33;;;17.48;;
60472;SDS011;46318;52.716;6.444;2023-09-18T04:36:29;19.30;;;17.50;;
60472;SDS011;46318;52.716;6.444;2023-09-18T04:38:56;19.50;;;17.58;;
60472;SDS011;46318;52.716;6.444;2023-09-18T04:41:22;19.23;;;17.50;;
60472;SDS011;46318;52.716;6.444;2023-09-18T04:43:48;18.58;;;16.85;;
60472;SDS011;46318;52.716;6.444;2023-09-18T04:46:16;18.38;;;16.75;;
60472;SDS011;46318;52.716;6.444;2023-09-18T04:48:41;18.70;;;16.90;;
60472;SDS011;46318;52.716;6.444;2023-09-18T04:51:07;19.02;;;17.33;;
60472;SDS011;46318;52.716;6.444;2023-09-18T04:53:33;18.48;;;16.75;;
60472;SDS011;46318;52.716;6.444;2023-09-18T04:55:59;19.42;;;17.73;;
60472;SDS011;46318;52.716;6.444;2023-09-18T04:58:26;18.67;;;17.08;;
60472;SDS011;46318;52.716;6.444;2023-09-18T05:00:58;18.63;;;16.88;;
60472;SDS011;46318;52.716;6.444;2023-09-18T05:03:25;19.70;;;17.80;;
60472;SDS011;46318;52.716;6.444;2023-09-18T05:05:52;19.65;;;17.65;;
60472;SDS011;46318;52.716;6.444;2023-09-18T05:08:18;19.52;;;17.70;;
60472;SDS011;46318;52.716;6.444;2023-09-18T05:10:44;17.73;;;15.88;;
60472;SDS011;46318;52.716;6.444;2023-09-18T05:13:11;19.55;;;17.75;;
60472;SDS011;46318;52.716;6.444;2023-09-18T05:15:37;20.15;;;18.25;;
60472;SDS011;46318;52.716;6.444;2023-09-18T05:18:04;20.42;;;18.63;;
60472;SDS011;46318;52.716;6.444;2023-09-18T05:20:30;19.20;;;17.50;;
60472;SDS011;46318;52.716;6.444;2023-09-18T05:22:58;18.90;;;17.10;;
60472;SDS011;46318;52.716;6.444;2023-09-18T05:25:25;17.65;;;15.80;;
60472;SDS011;46318;52.716;6.444;2023-09-18T05:27:59;18.92;;;16.85;;
60472;SDS011;46318;52.716;6.444;2023-09-18T05:30:29;17.23;;;15.68;;
60472;SDS011;46318;52.716;6.444;2023-09-18T05:32:59;17.23;;;15.60;;
60472;SDS011;46318;52.716;6.444;2023-09-18T05:35:43;19.35;;;17.45;;
60472;SDS011;46318;52.716;6.444;2023-09-18T05:38:13;19.67;;;17.73;;
60472;SDS011;46318;52.716;6.444;2023-09-18T05:40:39;18.95;;;17.10;;
60472;SDS011;46318;52.716;6.444;2023-09-18T05:43:06;20.80;;;18.90;;
60472;SDS011;46318;52.716;6.444;2023-09-18T05:45:36;19.45;;;17.70;;
60472;SDS011;46318;52.716;6.444;2023-09-18T05:48:02;19.33;;;17.23;;
60472;SDS011;46318;52.716;6.444;2023-09-18T05:50:32;17.45;;;15.73;;
60472;SDS011;46318;52.716;6.444;2023-09-18T05:53:00;18.90;;;17.02;;
60472;SDS011;46318;52.716;6.444;2023-09-18T05:55:38;17.73;;;16.02;;
60472;SDS011;46318;52.716;6.444;2023-09-18T05:58:07;16.70;;;15.18;;
60472;SDS011;46318;52.716;6.444;2023-09-18T06:00:33;17.10;;;15.50;;
60472;SDS011;46318;52.716;6.444;2023-09-18T06:02:59;18.30;;;14.70;;
60472;SDS011;46318;52.716;6.444;2023-09-18T06:05:25;16.40;;;14.65;;
60472;SDS011;46318;52.716;6.444;2023-09-18T06:07:53;15.55;;;14.00;;
60472;SDS011;46318;52.716;6.444;2023-09-18T06:10:19;17.00;;;15.23;;
60472;SDS011;46318;52.716;6.444;2023-09-18T06:12:46;14.52;;;13.13;;
60472;SDS011;46318;52.716;6.444;2023-09-18T06:15:14;15.50;;;14.00;;
60472;SDS011;46318;52.716;6.444;2023-09-18T06:17:41;15.05;;;13.15;;
60472;SDS011;46318;52.716;6.444;2023-09-18T06:20:09;14.82;;;13.45;;
60472;SDS011;46318;52.716;6.444;2023-09-18T06:22:38;15.27;;;13.77;;
60472;SDS011;46318;52.716;6.444;2023-09-18T06:25:06;15.85;;;14.38;;
60472;SDS011;46318;52.716;6.444;2023-09-18T06:27:36;15.07;;;13.53;;
60472;SDS011;46318;52.716;6.444;2023-09-18T06:30:03;15.35;;;13.73;;
60472;SDS011;46318;52.716;6.444;2023-09-18T06:32:32;15.73;;;14.23;;
60472;SDS011;46318;52.716;6.444;2023-09-18T06:34:59;15.20;;;13.70;;
60472;SDS011;46318;52.716;6.444;2023-09-18T06:37:26;15.88;;;14.35;;
60472;SDS011;46318;52.716;6.444;2023-09-18T06:39:51;16.40;;;14.75;;
60472;SDS011;46318;52.716;6.444;2023-09-18T06:42:17;18.65;;;15.75;;
60472;SDS011;46318;52.716;6.444;2023-09-18T06:44:43;17.55;;;15.85;;
60472;SDS011;46318;52.716;6.444;2023-09-18T06:47:10;19.90;;;17.48;;
60472;SDS011;46318;52.716;6.444;2023-09-18T06:49:40;30.42;;;23.58;;
60472;SDS011;46318;52.716;6.444;2023-09-18T06:52:07;28.52;;;24.17;;
60472;SDS011;46318;52.716;6.444;2023-09-18T06:54:34;27.08;;;22.58;;
60472;SDS011;46318;52.716;6.444;2023-09-18T06:57:03;23.20;;;20.83;;
60472;SDS011;46318;52.716;6.444;2023-09-18T06:59:29;21.38;;;19.10;;
60472;SDS011;46318;52.716;6.444;2023-09-18T07:02:02;24.02;;;20.77;;
60472;SDS011;46318;52.716;6.444;2023-09-18T07:04:30;23.70;;;21.10;;
60472;SDS011;46318;52.716;6.444;2023-09-18T07:06:55;22.48;;;20.27;;
60472;SDS011;46318;52.716;6.444;2023-09-18T07:09:21;23.27;;;20.95;;
60472;SDS011;46318;52.716;6.444;2023-09-18T07:11:48;21.85;;;19.80;;
60472;SDS011;46318;52.716;6.444;2023-09-18T07:14:14;26.77;;;24.02;;
60472;SDS011;46318;52.716;6.444;2023-09-18T07:16:43;25.00;;;22.50;;
60472;SDS011;46318;52.716;6.444;2023-09-18T07:19:09;24.42;;;21.98;;
60472;SDS011;46318;52.716;6.444;2023-09-18T07:21:37;21.77;;;19.77;;
60472;SDS011;46318;52.716;6.444;2023-09-18T07:24:08;23.38;;;20.98;;
60472;SDS011;46318;52.716;6.444;2023-09-18T07:26:38;24.48;;;21.88;;
60472;SDS011;46318;52.716;6.444;2023-09-18T07:29:08;23.00;;;20.70;;
60472;SDS011;46318;52.716;6.444;2023-09-18T07:31:34;22.98;;;20.75;;
60472;SDS011;46318;52.716;6.444;2023-09-18T07:34:00;20.70;;;18.73;;
60472;SDS011;46318;52.716;6.444;2023-09-18T07:36:26;22.48;;;19.95;;
60472;SDS011;46318;52.716;6.444;2023-09-18T07:38:54;22.85;;;20.48;;
60472;SDS011;46318;52.716;6.444;2023-09-18T07:41:24;21.75;;;19.35;;
60472;SDS011;46318;52.716;6.444;2023-09-18T07:43:50;21.48;;;19.25;;
60472;SDS011;46318;52.716;6.444;2023-09-18T07:46:16;23.80;;;20.63;;
60472;SDS011;46318;52.716;6.444;2023-09-18T07:48:42;18.92;;;16.95;;
60472;SDS011;46318;52.716;6.444;2023-09-18T07:51:11;21.67;;;19.40;;
60472;SDS011;46318;52.716;6.444;2023-09-18T07:53:37;20.73;;;18.73;;
60472;SDS011;46318;52.716;6.444;2023-09-18T07:56:04;21.55;;;19.52;;
60472;SDS011;46318;52.716;6.444;2023-09-18T07:58:31;21.73;;;19.40;;
60472;SDS011;46318;52.716;6.444;2023-09-18T08:00:58;21.35;;;19.30;;
60472;SDS011;46318;52.716;6.444;2023-09-18T08:03:27;24.27;;;21.77;;
60472;SDS011;46318;52.716;6.444;2023-09-18T08:05:54;22.67;;;20.52;;
60472;SDS011;46318;52.716;6.444;2023-09-18T08:08:21;20.30;;;18.40;;
60472;SDS011;46318;52.716;6.444;2023-09-18T08:10:48;22.23;;;19.92;;
60472;SDS011;46318;52.716;6.444;2023-09-18T08:13:15;23.10;;;20.80;;
60472;SDS011;46318;52.716;6.444;2023-09-18T08:15:42;22.75;;;20.55;;
60472;SDS011;46318;52.716;6.444;2023-09-18T08:18:09;22.67;;;20.40;;
60472;SDS011;46318;52.716;6.444;2023-09-18T08:20:36;21.45;;;19.20;;
60472;SDS011;46318;52.716;6.444;2023-09-18T08:23:08;23.48;;;20.20;;
60472;SDS011;46318;52.716;6.444;2023-09-18T08:25:37;24.08;;;21.67;;
60472;SDS011;46318;52.716;6.444;2023-09-18T08:28:03;24.10;;;21.67;;
60472;SDS011;46318;52.716;6.444;2023-09-18T08:30:29;24.45;;;21.90;;
60472;SDS011;46318;52.716;6.444;2023-09-18T08:32:55;24.13;;;21.63;;
60472;SDS011;46318;52.716;6.444;2023-09-18T08:35:21;23.27;;;21.02;;
60472;SDS011;46318;52.716;6.444;2023-09-18T08:37:48;25.33;;;21.67;;
60472;SDS011;46318;52.716;6.444;2023-09-18T08:40:14;22.60;;;20.40;;
60472;SDS011;46318;52.716;6.444;2023-09-18T08:42:45;24.30;;;20.35;;
60472;SDS011;46318;52.716;6.444;2023-09-18T08:45:22;23.00;;;20.50;;
60472;SDS011;46318;52.716;6.444;2023-09-18T08:47:56;21.65;;;19.48;;
60472;SDS011;46318;52.716;6.444;2023-09-18T08:50:22;21.38;;;19.20;;
60472;SDS011;46318;52.716;6.444;2023-09-18T08:52:50;22.20;;;20.10;;
60472;SDS011;46318;52.716;6.444;2023-09-18T08:55:16;21.90;;;19.73;;
60472;SDS011;46318;52.716;6.444;2023-09-18T08:57:43;21.80;;;19.63;;
60472;SDS011;46318;52.716;6.444;2023-09-18T09:00:11;21.60;;;19.40;;
60472;SDS011;46318;52.716;6.444;2023-09-18T09:02:42;21.30;;;19.15;;
60472;SDS011;46318;52.716;6.444;2023-09-18T09:05:10;20.35;;;18.25;;
60472;SDS011;46318;52.716;6.444;2023-09-18T09:07:37;22.88;;;18.88;;
60472;SDS011;46318;52.716;6.444;2023-09-18T09:10:03;20.65;;;17.65;;
60472;SDS011;46318;52.716;6.444;2023-09-18T09:15:29;20.65;;;18.55;;
60472;SDS011;46318;52.716;6.444;2023-09-18T09:18:13;18.17;;;16.38;;
60472;SDS011;46318;52.716;6.444;2023-09-18T09:21:01;19.05;;;17.15;;
60472;SDS011;46318;52.716;6.444;2023-09-18T09:23:52;18.27;;;16.52;;
60472;SDS011;46318;52.716;6.444;2023-09-18T09:26:20;18.30;;;16.40;;
60472;SDS011;46318;52.716;6.444;2023-09-18T09:28:47;17.08;;;15.57;;
60472;SDS011;46318;52.716;6.444;2023-09-18T09:33:53;16.55;;;15.10;;
60472;SDS011;46318;52.716;6.444;2023-09-18T09:36:24;14.95;;;13.50;;
60472;SDS011;46318;52.716;6.444;2023-09-18T09:38:56;15.55;;;14.15;;
60472;SDS011;46318;52.716;6.444;2023-09-18T09:41:23;16.02;;;14.52;;
60472;SDS011;46318;52.716;6.444;2023-09-18T09:43:51;14.77;;;13.57;;
60472;SDS011;46318;52.716;6.444;2023-09-18T09:46:17;17.70;;;14.10;;
60472;SDS011;46318;52.716;6.444;2023-09-18T09:49:03;14.57;;;13.07;;
60472;SDS011;46318;52.716;6.444;2023-09-18T09:51:30;14.25;;;12.90;;
60472;SDS011;46318;52.716;6.444;2023-09-18T09:53:58;13.93;;;12.35;;
60472;SDS011;46318;52.716;6.444;2023-09-18T09:59:16;13.68;;;12.45;;
60472;SDS011;46318;52.716;6.444;2023-09-18T10:01:47;14.02;;;12.77;;
60472;SDS011;46318;52.716;6.444;2023-09-18T10:04:17;12.05;;;11.05;;
60472;SDS011;46318;52.716;6.444;2023-09-18T10:06:51;12.70;;;11.50;;
60472;SDS011;46318;52.716;6.444;2023-09-18T10:09:41;12.65;;;11.35;;
60472;SDS011;46318;52.716;6.444;2023-09-18T10:12:12;12.50;;;11.40;;
60472;SDS011;46318;52.716;6.444;2023-09-18T10:14:45;11.77;;;10.77;;
60472;SDS011;46318;52.716;6.444;2023-09-18T10:17:15;11.75;;;10.75;;
60472;SDS011;46318;52.716;6.444;2023-09-18T10:20:07;11.85;;;10.55;;
60472;SDS011;46318;52.716;6.444;2023-09-18T10:22:39;11.27;;;10.10;;
60472;SDS011;46318;52.716;6.444;2023-09-18T10:25:18;11.05;;;10.00;;
60472;SDS011;46318;52.716;6.444;2023-09-18T10:27:48;10.55;;;9.55;;
60472;SDS011;46318;52.716;6.444;2023-09-18T10:30:18;10.18;;;9.25;;
60472;SDS011;46318;52.716;6.444;2023-09-18T10:32:48;9.88;;;8.95;;
60472;SDS011;46318;52.716;6.444;2023-09-18T10:35:22;11.05;;;7.57;;
60472;SDS011;46318;52.716;6.444;2023-09-18T10:37:48;8.15;;;7.53;;
60472;SDS011;46318;52.716;6.444;2023-09-18T10:40:21;8.55;;;7.75;;
60472;SDS011;46318;52.716;6.444;2023-09-18T10:42:48;8.10;;;7.38;;
60472;SDS011;46318;52.716;6.444;2023-09-18T10:45:17;7.60;;;7.10;;
60472;SDS011;46318;52.716;6.444;2023-09-18T10:47:43;7.80;;;7.10;;
60472;SDS011;46318;52.716;6.444;2023-09-18T10:50:23;8.73;;;7.93;;
60472;SDS011;46318;52.716;6.444;2023-09-18T10:52:51;8.02;;;7.32;;
60472;SDS011;46318;52.716;6.444;2023-09-18T10:55:17;7.50;;;6.93;;
60472;SDS011;46318;52.716;6.444;2023-09-18T11:00:38;7.18;;;6.45;;
60472;SDS011;46318;52.716;6.444;2023-09-18T11:06:03;6.18;;;5.68;;
60472;SDS011;46318;52.716;6.444;2023-09-18T11:11:16;5.47;;;4.57;;
60472;SDS011;46318;52.716;6.444;2023-09-18T11:13:50;5.93;;;5.00;;
60472;SDS011;46318;52.716;6.444;2023-09-18T11:18:52;5.70;;;4.70;;
60472;SDS011;46318;52.716;6.444;2023-09-18T11:21:31;6.80;;;4.35;;
60472;SDS011;46318;52.716;6.444;2023-09-18T11:24:05;4.70;;;4.30;;
60472;SDS011;46318;52.716;6.444;2023-09-18T11:26:47;5.90;;;3.60;;
60472;SDS011;46318;52.716;6.444;2023-09-18T11:29:21;4.22;;;3.83;;
60472;SDS011;46318;52.716;6.444;2023-09-18T11:31:51;4.20;;;3.53;;
60472;SDS011;46318;52.716;6.444;2023-09-18T11:34:20;3.80;;;3.25;;
60472;SDS011;46318;52.716;6.444;2023-09-18T11:36:56;4.20;;;3.80;;
60472;SDS011;46318;52.716;6.444;2023-09-18T11:39:36;4.20;;;3.78;;
60472;SDS011;46318;52.716;6.444;2023-09-18T11:42:09;4.60;;;3.60;;
60472;SDS011;46318;52.716;6.444;2023-09-18T11:44:54;4.60;;;3.90;;
60472;SDS011;46318;52.716;6.444;2023-09-18T11:47:37;5.63;;;3.63;;
60472;SDS011;46318;52.716;6.444;2023-09-18T11:50:09;6.32;;;3.60;;
60472;SDS011;46318;52.716;6.444;2023-09-18T11:52:36;3.72;;;3.42;;
60472;SDS011;46318;52.716;6.444;2023-09-18T11:55:02;5.53;;;4.00;;
60472;SDS011;46318;52.716;6.444;2023-09-18T11:57:28;4.63;;;4.15;;
60472;SDS011;46318;52.716;6.444;2023-09-18T12:00:00;4.47;;;4.07;;
60472;SDS011;46318;52.716;6.444;2023-09-18T12:02:37;5.45;;;4.60;;
60472;SDS011;46318;52.716;6.444;2023-09-18T12:05:10;5.68;;;5.15;;
60472;SDS011;46318;52.716;6.444;2023-09-18T12:07:40;6.07;;;4.55;;
60472;SDS011;46318;52.716;6.444;2023-09-18T12:10:12;5.20;;;4.53;;
60472;SDS011;46318;52.716;6.444;2023-09-18T12:12:42;4.50;;;4.10;;
60472;SDS011;46318;52.716;6.444;2023-09-18T12:15:12;4.90;;;4.50;;
60472;SDS011;46318;52.716;6.444;2023-09-18T12:17:48;4.30;;;3.88;;
60472;SDS011;46318;52.716;6.444;2023-09-18T12:20:20;5.18;;;4.20;;
60472;SDS011;46318;52.716;6.444;2023-09-18T12:22:47;5.00;;;4.20;;
60472;SDS011;46318;52.716;6.444;2023-09-18T12:25:18;5.22;;;4.70;;
60472;SDS011;46318;52.716;6.444;2023-09-18T12:27:44;5.78;;;5.22;;
60472;SDS011;46318;52.716;6.444;2023-09-18T12:30:11;6.63;;;5.50;;
60472;SDS011;46318;52.716;6.444;2023-09-18T12:32:46;6.35;;;5.22;;
60472;SDS011;46318;52.716;6.444;2023-09-18T12:35:15;6.22;;;4.75;;
60472;SDS011;46318;52.716;6.444;2023-09-18T12:37:46;5.40;;;4.90;;
60472;SDS011;46318;52.716;6.444;2023-09-18T12:40:23;5.30;;;4.82;;
60472;SDS011;46318;52.716;6.444;2023-09-18T12:42:58;6.40;;;5.78;;
60472;SDS011;46318;52.716;6.444;2023-09-18T12:45:25;7.32;;;5.63;;
60472;SDS011;46318;52.716;6.444;2023-09-18T12:47:54;6.05;;;5.45;;
60472;SDS011;46318;52.716;6.444;2023-09-18T12:50:22;7.60;;;5.57;;
60472;SDS011;46318;52.716;6.444;2023-09-18T12:52:50;6.40;;;5.80;;
60472;SDS011;46318;52.716;6.444;2023-09-18T12:55:25;6.30;;;5.38;;
60472;SDS011;46318;52.716;6.444;2023-09-18T12:57:54;9.05;;;5.70;;
60472;SDS011;46318;52.716;6.444;2023-09-18T13:00:21;7.97;;;6.05;;
60472;SDS011;46318;52.716;6.444;2023-09-18T13:02:48;6.50;;;5.35;;
60472;SDS011;46318;52.716;6.444;2023-09-18T13:05:21;5.20;;;4.70;;
60472;SDS011;46318;52.716;6.444;2023-09-18T13:07:52;5.78;;;4.97;;
60472;SDS011;46318;52.716;6.444;2023-09-18T13:10:19;5.90;;;5.30;;
60472;SDS011;46318;52.716;6.444;2023-09-18T13:15:26;7.05;;;5.10;;
60472;SDS011;46318;52.716;6.444;2023-09-18T13:18:00;4.85;;;4.50;;
60472;SDS011;46318;52.716;6.444;2023-09-18T13:20:35;5.88;;;4.97;;
60472;SDS011;46318;52.716;6.444;2023-09-18T13:23:01;6.50;;;5.18;;
60472;SDS011;46318;52.716;6.444;2023-09-18T13:25:33;6.40;;;4.97;;
60472;SDS011;46318;52.716;6.444;2023-09-18T13:28:06;6.95;;;5.10;;
60472;SDS011;46318;52.716;6.444;2023-09-18T13:30:35;5.78;;;5.20;;
60472;SDS011;46318;52.716;6.444;2023-09-18T13:33:23;5.72;;;5.32;;
60472;SDS011;46318;52.716;6.444;2023-09-18T13:35:53;5.80;;;5.30;;
60472;SDS011;46318;52.716;6.444;2023-09-18T13:38:22;5.75;;;5.25;;
60472;SDS011;46318;52.716;6.444;2023-09-18T13:40:48;6.45;;;4.35;;
60472;SDS011;46318;52.716;6.444;2023-09-18T13:43:15;4.28;;;3.88;;
60472;SDS011;46318;52.716;6.444;2023-09-18T13:45:41;6.45;;;4.15;;
60472;SDS011;46318;52.716;6.444;2023-09-18T13:48:07;4.68;;;3.80;;
60472;SDS011;46318;52.716;6.444;2023-09-18T13:50:34;6.13;;;3.40;;
60472;SDS011;46318;52.716;6.444;2023-09-18T13:53:01;6.40;;;3.67;;
60472;SDS011;46318;52.716;6.444;2023-09-18T13:55:35;4.60;;;3.58;;
60472;SDS011;46318;52.716;6.444;2023-09-18T13:58:01;4.90;;;3.97;;
60472;SDS011;46318;52.716;6.444;2023-09-18T14:00:31;4.40;;;4.00;;
60472;SDS011;46318;52.716;6.444;2023-09-18T14:02:57;5.13;;;3.40;;
60472;SDS011;46318;52.716;6.444;2023-09-18T14:05:26;4.40;;;3.40;;
60472;SDS011;46318;52.716;6.444;2023-09-18T14:08:15;4.03;;;3.10;;
60472;SDS011;46318;52.716;6.444;2023-09-18T14:10:43;3.92;;;3.30;;
60472;SDS011;46318;52.716;6.444;2023-09-18T14:13:10;4.97;;;2.97;;
60472;SDS011;46318;52.716;6.444;2023-09-18T14:15:36;5.53;;;3.10;;
60472;SDS011;46318;52.716;6.444;2023-09-18T14:18:04;3.42;;;3.13;;
60472;SDS011;46318;52.716;6.444;2023-09-18T14:20:30;4.63;;;3.10;;
60472;SDS011;46318;52.716;6.444;2023-09-18T14:22:55;4.57;;;3.03;;
60472;SDS011;46318;52.716;6.444;2023-09-18T14:25:21;4.25;;;2.90;;
60472;SDS011;46318;52.716;6.444;2023-09-18T14:27:53;3.92;;;2.90;;
60472;SDS011;46318;52.716;6.444;2023-09-18T14:30:20;3.95;;;2.60;;
60472;SDS011;46318;52.716;6.444;2023-09-18T14:32:51;3.53;;;2.75;;
60472;SDS011;46318;52.716;6.444;2023-09-18T14:35:17;3.03;;;2.65;;
60472;SDS011;46318;52.716;6.444;2023-09-18T14:37:43;3.90;;;2.83;;
60472;SDS011;46318;52.716;6.444;2023-09-18T14:40:12;5.60;;;2.70;;
60472;SDS011;46318;52.716;6.444;2023-09-18T14:42:42;3.40;;;2.60;;
60472;SDS011;46318;52.716;6.444;2023-09-18T14:45:08;4.80;;;2.72;;
60472;SDS011;46318;52.716;6.444;2023-09-18T14:47:38;4.15;;;3.15;;
60472;SDS011;46318;52.716;6.444;2023-09-18T14:50:05;3.17;;;2.88;;
60472;SDS011;46318;52.716;6.444;2023-09-18T14:52:32;4.60;;;2.90;;
60472;SDS011;46318;52.716;6.444;2023-09-18T14:54:58;4.93;;;2.78;;
60472;SDS011;46318;52.716;6.444;2023-09-18T14:57:30;5.22;;;3.10;;
60472;SDS011;46318;52.716;6.444;2023-09-18T14:59:56;3.97;;;3.03;;
60472;SDS011;46318;52.716;6.444;2023-09-18T15:02:22;3.45;;;2.90;;
60472;SDS011;46318;52.716;6.444;2023-09-18T15:04:54;3.45;;;3.15;;